Time;durP1;ratioP1;P1;durP2;ratioP2;P2;SDS_P1;SDS_P2;PMS_P1;PMS_P2;Temp;Humidity;BMP_temperature;BMP_pressure;BME280_temperature;BME280_humidity;BME280_pressure;Samples;Min_cycle;Max_cycle;Signal;HPM_P1;HPM_P2
2022/11/02 00:00:11;;;;;;;10.02;5.07;;;;;;;8.83;100.00;96455.00;1022393;29;20342;-70
2022/11/02 00:00:41;;;;;;;7.30;4.45;;;;;;;8.76;100.00;96451.72;1022462;29;20499;-71
2022/11/02 00:01:26;;;;;;;9.35;4.72;;;;;;;8.81;100.00;96451.00;1030224;28;20280;-71
2022/11/02 00:01:56;;;;;;;10.38;5.53;;;;;;;8.82;100.00;96463.88;1030262;28;20404;-72
2022/11/02 00:02:29;;;;;;;7.22;4.40;;;;;;;8.81;100.00;96462.25;1029752;28;20270;-70
2022/11/02 00:03:00;;;;;;;11.63;4.82;;;;;;;8.82;100.00;96457.81;1036563;28;20999;-70
2022/11/02 00:03:30;;;;;;;11.20;4.65;;;;;;;8.78;100.00;96457.50;1036141;28;20553;-72
2022/11/02 00:04:00;;;;;;;10.15;5.05;;;;;;;8.68;100.00;96441.59;1038503;28;20426;-71
2022/11/02 00:04:31;;;;;;;8.20;4.28;;;;;;;8.76;100.00;96464.00;1030346;28;20061;-72
2022/11/02 00:05:01;;;;;;;10.05;4.63;;;;;;;8.74;100.00;96459.78;1030823;28;20026;-70
2022/11/02 00:05:32;;;;;;;13.55;4.95;;;;;;;8.74;100.00;96459.78;1026282;28;20037;-70
2022/11/02 00:06:02;;;;;;;14.10;4.95;;;;;;;8.76;100.00;96466.63;1030525;28;20602;-71
2022/11/02 00:06:33;;;;;;;7.25;4.00;;;;;;;8.73;100.00;96458.19;1026179;28;20030;-71
2022/11/02 00:07:03;;;;;;;10.18;4.90;;;;;;;8.70;100.00;96461.28;1030178;28;20030;-70
2022/11/02 00:07:34;;;;;;;13.77;4.43;;;;;;;8.66;100.00;96454.13;1026399;28;20023;-72
2022/11/02 00:08:04;;;;;;;8.25;4.47;;;;;;;8.60;100.00;96441.97;1032472;28;20030;-70
2022/11/02 00:08:35;;;;;;;10.40;5.30;;;;;;;8.65;100.00;96455.97;1035789;28;20033;-71
2022/11/02 00:09:05;;;;;;;13.85;4.55;;;;;;;8.58;100.00;96447.44;1038434;28;20947;-72
2022/11/02 00:09:36;;;;;;;20.40;6.05;;;;;;;8.62;100.00;96459.03;1029027;28;20376;-71
2022/11/02 00:10:07;;;;;;;8.88;5.25;;;;;;;8.61;100.00;96451.41;1030472;28;20097;-71
2022/11/02 00:10:41;;;;;;;8.07;4.40;;;;;;;8.55;100.00;96447.09;1030348;28;20614;-70
2022/11/02 00:11:11;;;;;;;8.18;5.20;;;;;;;8.59;100.00;96458.72;1022000;28;20283;-71
2022/11/02 00:11:41;;;;;;;11.88;5.13;;;;;;;8.57;100.00;96458.13;1026387;28;20607;-71
2022/11/02 00:12:12;;;;;;;9.48;4.60;;;;;;;8.56;100.00;96467.03;1029086;28;20038;-71
2022/11/02 00:12:43;;;;;;;15.15;6.85;;;;;;;8.56;100.00;96461.78;1030174;28;20427;-72
2022/11/02 00:13:13;;;;;;;12.65;4.82;;;;;;;8.53;100.00;96462.25;1019155;29;20031;-71
2022/11/02 00:13:44;;;;;;;7.45;4.45;;;;;;;8.55;100.00;96463.63;1020559;28;20270;-71
2022/11/02 00:14:14;;;;;;;12.27;4.43;;;;;;;8.46;100.00;96449.31;1022636;28;20042;-72
2022/11/02 00:14:45;;;;;;;9.10;5.32;;;;;;;8.52;100.00;96464.06;1026290;28;20472;-72
2022/11/02 00:15:15;;;;;;;13.90;4.95;;;;;;;8.52;100.00;96466.69;1026069;28;20042;-71
2022/11/02 00:15:46;;;;;;;13.13;4.57;;;;;;;8.59;100.00;96467.34;1026420;28;20111;-71
2022/11/02 00:16:17;;;;;;;8.32;4.88;;;;;;;8.52;100.00;96452.78;1022354;28;20027;-71
2022/11/02 00:16:47;;;;;;;8.82;4.40;;;;;;;8.55;100.00;96468.84;1026403;28;20353;-73
2022/11/02 00:17:18;;;;;;;6.88;4.55;;;;;;;8.53;100.00;96464.88;1026090;28;20898;-70
2022/11/02 00:17:50;;;;;;;8.35;4.70;;;;;;;8.59;100.00;96462.13;1030300;28;20400;-72
2022/11/02 00:18:20;;;;;;;9.82;5.10;;;;;;;8.68;100.00;96459.91;1023471;28;20022;-71
2022/11/02 00:18:52;;;;;;;9.30;4.30;;;;;;;8.68;100.00;96458.09;1028182;28;20753;-73
2022/11/02 00:19:23;;;;;;;8.15;5.20;;;;;;;8.76;100.00;96471.88;1034237;28;20018;-70
2022/11/02 00:19:53;;;;;;;11.85;5.55;;;;;;;8.80;100.00;96463.31;1026655;28;21019;-70
2022/11/02 00:20:25;;;;;;;9.07;4.95;;;;;;;8.82;100.00;96468.28;1025567;28;20050;-73
2022/11/02 00:20:55;;;;;;;9.93;5.10;;;;;;;8.86;100.00;96469.44;1030499;28;20033;-71
2022/11/02 00:21:26;;;;;;;12.18;4.88;;;;;;;8.79;100.00;96458.31;1034196;28;20264;-70
2022/11/02 00:21:57;;;;;;;10.50;4.53;;;;;;;8.86;100.00;96470.22;1022568;28;20145;-70
2022/11/02 00:22:32;;;;;;;10.85;5.25;;;;;;;8.86;100.00;96475.47;1029459;28;20014;-70
2022/11/02 00:23:03;;;;;;;8.20;4.85;;;;;;;8.79;100.00;96458.31;1023060;28;20279;-70
2022/11/02 00:23:33;;;;;;;12.02;5.20;;;;;;;8.82;100.00;96468.28;1025806;28;20297;-72
2022/11/02 00:24:04;;;;;;;10.45;5.07;;;;;;;8.83;100.00;96475.13;1026615;28;20281;-70
2022/11/02 00:24:35;;;;;;;7.80;4.95;;;;;;;8.80;100.00;96475.59;1026295;28;20029;-71
2022/11/02 00:25:06;;;;;;;10.40;5.25;;;;;;;8.77;100.00;96473.44;1022208;28;20207;-72
2022/11/02 00:25:41;;;;;;;14.05;5.50;;;;;;;8.78;100.00;96478.44;1016345;29;20518;-71
2022/11/02 00:26:11;;;;;;;13.70;5.63;;;;;;;8.68;100.00;96468.56;1022303;28;20306;-70
2022/11/02 00:26:42;;;;;;;17.88;5.82;;;;;;;8.73;100.00;96481.75;1030339;28;20367;-70
2022/11/02 00:27:12;;;;;;;10.80;4.93;;;;;;;8.69;100.00;96480.63;1026230;28;20039;-71
2022/11/02 00:27:42;;;;;;;11.05;4.97;;;;;;;8.67;100.00;96472.22;1026396;28;20087;-72
2022/11/02 00:28:13;;;;;;;9.57;5.38;;;;;;;8.68;100.00;96468.56;1034242;28;20029;-69
2022/11/02 00:28:47;;;;;;;12.05;5.68;;;;;;;8.65;100.00;96466.44;1023185;28;20114;-71
2022/11/02 00:29:17;;;;;;;11.98;5.72;;;;;;;8.67;100.00;96472.22;1017428;29;20302;-71
2022/11/02 00:29:48;;;;;;;8.77;5.00;;;;;;;8.64;100.00;96477.91;1018385;29;20027;-70
2022/11/02 00:30:18;;;;;;;13.45;6.13;;;;;;;8.54;100.00;96462.00;1020271;28;20039;-69
2022/11/02 00:30:49;;;;;;;11.13;5.15;;;;;;;8.60;100.00;96479.41;1021134;28;20035;-70
2022/11/02 00:31:19;;;;;;;12.30;5.40;;;;;;;8.55;100.00;96468.84;1027944;28;20030;-72
2022/11/02 00:31:50;;;;;;;10.48;4.90;;;;;;;8.58;100.00;96473.59;1030154;28;20039;-72
2022/11/02 00:32:20;;;;;;;9.05;5.15;;;;;;;8.55;100.00;96473.25;1027144;28;20049;-72
2022/11/02 00:32:50;;;;;;;10.88;5.13;;;;;;;8.49;100.00;96469.75;1025883;28;20038;-71
2022/11/02 00:33:21;;;;;;;9.88;5.10;;;;;;;8.55;100.00;96471.47;1026354;28;20039;-72
2022/11/02 00:33:51;;;;;;;12.13;5.70;;;;;;;8.45;100.00;96460.75;1026144;28;20588;-72
2022/11/02 00:34:22;;;;;;;10.65;5.80;;;;;;;8.43;100.00;96462.84;1026216;28;20032;-71
2022/11/02 00:34:52;;;;;;;10.90;5.28;;;;;;;8.48;100.00;96476.81;1026117;28;20027;-72
2022/11/02 00:35:23;;;;;;;9.13;4.82;;;;;;;8.47;100.00;96466.56;1022334;28;20024;-72
2022/11/02 00:35:53;;;;;;;9.75;5.57;;;;;;;8.45;100.00;96474.66;1022183;28;20023;-72
2022/11/02 00:36:24;;;;;;;9.30;5.43;;;;;;;8.43;100.00;96470.69;1016637;29;20028;-72
2022/11/02 00:36:54;;;;;;;8.65;5.82;;;;;;;8.42;100.00;96475.13;1026193;28;20097;-71
2022/11/02 00:37:25;;;;;;;8.63;5.05;;;;;;;8.43;100.00;96479.31;1030313;28;20030;-70
2022/11/02 00:37:55;;;;;;;9.52;5.38;;;;;;;8.43;100.00;96481.13;1030090;28;20030;-70
2022/11/02 00:38:26;;;;;;;9.15;5.13;;;;;;;8.38;100.00;96473.19;1023710;28;20042;-70
2022/11/02 00:38:56;;;;;;;7.80;5.00;;;;;;;8.39;100.00;96474.78;1030266;28;20041;-72
2022/11/02 00:39:26;;;;;;;8.65;5.90;;;;;;;8.34;100.00;96464.97;1029478;28;20501;-73
2022/11/02 00:39:57;;;;;;;9.32;4.60;;;;;;;8.45;100.00;96484.31;1030084;28;20035;-71
2022/11/02 00:40:27;;;;;;;10.02;5.18;;;;;;;8.43;100.00;96479.31;1034093;28;20034;-70
2022/11/02 00:40:58;;;;;;;9.15;5.25;;;;;;;8.38;100.00;96481.81;1034419;28;20022;-70
2022/11/02 00:41:29;;;;;;;10.75;5.10;;;;;;;8.40;100.00;96481.59;1029886;28;20034;-70
2022/11/02 00:42:00;;;;;;;11.57;4.82;;;;;;;8.38;100.00;96475.78;1021985;29;20042;-70
2022/11/02 00:42:30;;;;;;;9.70;5.53;;;;;;;8.41;100.00;96473.50;1033241;28;20371;-71
2022/11/02 00:43:01;;;;;;;10.40;5.63;;;;;;;8.44;100.00;96482.72;1027272;28;20030;-71
2022/11/02 00:43:31;;;;;;;12.23;5.35;;;;;;;8.50;100.00;96487.84;1023231;28;20038;-71
2022/11/02 00:44:02;;;;;;;11.15;5.95;;;;;;;8.51;100.00;96488.63;1022123;29;20028;-71
2022/11/02 00:44:33;;;;;;;10.27;5.93;;;;;;;8.54;100.00;96490.78;1022356;28;20122;-71
2022/11/02 00:45:04;;;;;;;10.15;5.30;;;;;;;8.53;100.00;96489.19;1030168;28;20724;-71
2022/11/02 00:45:35;;;;;;;7.70;4.70;;;;;;;8.57;100.00;96481.69;1030551;28;20050;-71
2022/11/02 00:46:05;;;;;;;10.00;5.72;;;;;;;8.56;100.00;96490.56;1030258;28;20273;-72
2022/11/02 00:46:35;;;;;;;14.07;5.63;;;;;;;8.51;100.00;96483.38;1029928;28;20081;-72
2022/11/02 00:47:06;;;;;;;9.65;4.88;;;;;;;8.59;100.00;96490.91;1026978;28;20027;-72
2022/11/02 00:47:36;;;;;;;8.55;5.18;;;;;;;8.60;100.00;96494.31;1031447;28;20026;-72
2022/11/02 00:48:07;;;;;;;10.30;5.38;;;;;;;8.57;100.00;96492.94;1035372;28;20030;-72
2022/11/02 00:48:37;;;;;;;10.20;5.07;;;;;;;8.53;100.00;96488.41;1039118;28;20498;-73
2022/11/02 00:49:08;;;;;;;11.05;5.43;;;;;;;8.55;100.00;96492.38;1031815;28;20026;-71
2022/11/02 00:49:38;;;;;;;10.60;5.13;;;;;;;8.54;100.00;96490.00;1023064;29;20031;-72
2022/11/02 00:50:09;;;;;;;7.95;4.70;;;;;;;8.52;100.00;96490.22;1019850;29;20024;-72
2022/11/02 00:50:39;;;;;;;10.93;5.07;;;;;;;8.50;100.00;96487.84;1027003;28;20031;-71
2022/11/02 00:51:10;;;;;;;7.60;4.60;;;;;;;8.49;100.00;96481.00;1031115;28;20069;-72
2022/11/02 00:51:42;;;;;;;9.93;4.80;;;;;;;8.55;100.00;96491.56;1031081;28;20034;-71
2022/11/02 00:52:12;;;;;;;9.73;5.20;;;;;;;8.56;100.00;96487.94;1024847;28;20060;-71
2022/11/02 00:52:43;;;;;;;11.63;4.57;;;;;;;8.60;100.00;96489.84;1019249;29;20309;-72
2022/11/02 00:53:13;;;;;;;9.68;4.47;;;;;;;8.60;100.00;96489.06;1023127;28;20035;-72
2022/11/02 00:53:43;;;;;;;12.32;5.68;;;;;;;8.57;100.00;96492.94;1023397;28;20027;-72
2022/11/02 00:54:17;;;;;;;10.07;5.13;;;;;;;8.57;100.00;96492.94;1033400;28;20042;-73
2022/11/02 00:54:47;;;;;;;8.68;5.10;;;;;;;8.59;100.00;96498.75;1039126;28;20966;-71
2022/11/02 00:55:18;;;;;;;11.00;5.50;;;;;;;8.58;100.00;96497.13;1032972;28;20467;-71
2022/11/02 00:55:48;;;;;;;9.68;5.07;;;;;;;8.63;100.00;96496.47;1038988;28;20029;-70
2022/11/02 00:56:24;;;;;;;13.55;5.05;;;;;;;8.66;100.00;96490.75;1039451;28;20026;-71
2022/11/02 00:56:55;;;;;;;7.72;4.65;;;;;;;8.68;100.00;96492.09;1036228;28;20272;-73
2022/11/02 00:57:25;;;;;;;7.20;4.82;;;;;;;8.65;100.00;96492.59;1031198;28;20346;-70
2022/11/02 00:57:56;;;;;;;8.65;4.88;;;;;;;8.72;100.00;96490.63;1023115;29;20547;-71
2022/11/02 00:58:29;;;;;;;12.93;5.05;;;;;;;8.70;100.00;96482.22;1019101;29;20024;-70
2022/11/02 00:59:00;;;;;;;7.72;4.70;;;;;;;8.77;100.00;96486.53;1015282;29;20287;-71
2022/11/02 00:59:30;;;;;;;7.47;4.28;;;;;;;8.74;100.00;96487.78;1016323;29;20024;-72
2022/11/02 01:00:01;;;;;;;7.30;4.40;;;;;;;8.76;100.00;96487.56;1015643;29;20039;-72
2022/11/02 01:00:31;;;;;;;9.25;4.93;;;;;;;8.82;100.00;96484.81;1019172;28;20486;-73
2022/11/02 01:01:05;;;;;;;7.80;4.45;;;;;;;8.85;100.00;96492.19;1023145;29;20497;-72
2022/11/02 01:01:36;;;;;;;6.90;4.15;;;;;;;8.81;100.00;96483.19;1026898;28;20078;-71
2022/11/02 01:02:06;;;;;;;7.70;4.38;;;;;;;8.84;100.00;96487.97;1022485;28;20267;-71
2022/11/02 01:02:37;;;;;;;12.27;4.75;;;;;;;8.80;100.00;96483.44;1018480;29;20098;-72
2022/11/02 01:03:07;;;;;;;7.65;4.20;;;;;;;8.79;100.00;96487.09;1027099;28;20033;-71
2022/11/02 01:03:38;;;;;;;9.85;3.85;;;;;;;8.83;100.00;96491.63;1031280;28;20527;-71
2022/11/02 01:04:08;;;;;;;7.18;4.30;;;;;;;8.81;100.00;96490.25;1031305;28;20029;-71
2022/11/02 01:04:39;;;;;;;8.40;4.45;;;;;;;8.82;100.00;96497.06;1031134;28;20052;-71
2022/11/02 01:05:09;;;;;;;9.57;4.35;;;;;;;8.79;100.00;96484.47;1028054;28;20027;-70
2022/11/02 01:05:40;;;;;;;5.90;4.78;;;;;;;8.81;100.00;96498.13;1027121;28;20015;-71
2022/11/02 01:06:11;;;;;;;9.75;4.32;;;;;;;8.82;100.00;96494.47;1027253;28;20036;-70
2022/11/02 01:06:42;;;;;;;10.95;4.45;;;;;;;8.75;100.00;96489.34;1027076;28;20784;-71
2022/11/02 01:07:13;;;;;;;8.07;4.60;;;;;;;8.85;100.00;96491.38;1023264;28;20293;-71
2022/11/02 01:07:43;;;;;;;10.55;4.80;;;;;;;8.76;100.00;96482.31;1022987;29;20027;-73
2022/11/02 01:08:14;;;;;;;9.73;5.00;;;;;;;8.78;100.00;96494.13;1031152;28;20491;-70
2022/11/02 01:08:44;;;;;;;10.63;4.78;;;;;;;8.71;100.00;96489.03;1031063;28;20431;-72
2022/11/02 01:09:15;;;;;;;9.68;4.55;;;;;;;8.64;100.00;96483.13;1027262;28;20447;-71
2022/11/02 01:09:51;;;;;;;6.85;4.55;;;;;;;8.71;100.00;96493.47;1026374;28;20039;-71
2022/11/02 01:10:24;;;;;;;7.97;4.28;;;;;;;8.68;100.00;96493.94;1026165;28;20298;-73
2022/11/02 01:10:58;;;;;;;11.73;5.07;;;;;;;8.67;100.00;96493.13;1032146;28;20372;-71
2022/11/02 01:11:28;;;;;;;9.35;4.55;;;;;;;8.58;100.00;96478.03;1032645;28;20281;-70
2022/11/02 01:11:59;;;;;;;10.15;5.50;;;;;;;8.61;100.00;96488.81;1035048;28;20269;-71
2022/11/02 01:12:29;;;;;;;8.75;4.60;;;;;;;8.52;100.00;96485.00;1030421;28;20045;-71
2022/11/02 01:13:00;;;;;;;15.18;4.70;;;;;;;8.55;100.00;96495.00;1031420;28;20019;-70
2022/11/02 01:13:33;;;;;;;6.65;4.47;;;;;;;8.53;100.00;96491.81;1026738;28;20030;-70
2022/11/02 01:14:03;;;;;;;10.35;3.85;;;;;;;8.49;100.00;96491.47;1019276;29;20027;-72
2022/11/02 01:14:34;;;;;;;8.88;4.93;;;;;;;8.46;100.00;96488.53;1021077;29;20726;-71
2022/11/02 01:15:06;;;;;;;7.97;4.68;;;;;;;8.35;100.00;96478.84;1016081;28;20565;-73
2022/11/02 01:15:36;;;;;;;7.78;4.95;;;;;;;8.42;100.00;96488.19;1026885;28;20809;-72
2022/11/02 01:16:07;;;;;;;11.52;5.30;;;;;;;8.43;100.00;96497.63;1022978;29;20336;-71
2022/11/02 01:16:40;;;;;;;10.13;5.72;;;;;;;8.39;100.00;96491.28;1026819;28;20030;-72
2022/11/02 01:17:10;;;;;;;10.65;5.05;;;;;;;8.36;100.00;96499.53;1026991;28;20185;-71
2022/11/02 01:17:40;;;;;;;14.15;5.13;;;;;;;8.34;100.00;96498.16;1027533;28;20748;-72
2022/11/02 01:18:11;;;;;;;8.73;4.50;;;;;;;8.29;100.00;96491.03;1031173;28;20619;-72
2022/11/02 01:18:42;;;;;;;9.32;4.95;;;;;;;8.35;100.00;96499.75;1031001;28;20572;-72
2022/11/02 01:19:13;;;;;;;10.35;4.68;;;;;;;8.29;100.00;96485.00;1031256;28;20294;-72
2022/11/02 01:19:43;;;;;;;7.18;4.43;;;;;;;8.23;100.00;96484.88;1021237;29;20263;-72
2022/11/02 01:20:21;;;;;;;11.75;4.75;;;;;;;8.27;100.00;96493.06;1018717;29;20055;-73
2022/11/02 01:20:55;;;;;;;10.02;5.22;;;;;;;8.27;100.00;96493.06;1019093;29;20076;-71
2022/11/02 01:21:26;;;;;;;8.82;4.72;;;;;;;8.26;100.00;96494.88;1029937;28;20417;-71
2022/11/02 01:22:00;;;;;;;12.13;5.22;;;;;;;8.24;100.00;96491.69;1031331;28;20940;-72
2022/11/02 01:22:30;;;;;;;8.27;4.47;;;;;;;8.21;100.00;96502.59;1025386;28;20948;-72
2022/11/02 01:23:01;;;;;;;9.43;4.82;;;;;;;8.20;100.00;96492.38;1023026;28;20279;-71
2022/11/02 01:23:35;;;;;;;10.20;4.82;;;;;;;8.22;100.00;96491.16;1020274;29;20513;-72
2022/11/02 01:24:05;;;;;;;10.15;5.07;;;;;;;8.20;100.00;96493.19;1018991;29;20788;-71
2022/11/02 01:24:36;;;;;;;8.82;4.50;;;;;;;8.10;100.00;96482.50;1024027;28;20266;-71
2022/11/02 01:25:07;;;;;;;7.40;4.97;;;;;;;8.16;100.00;96497.28;1024729;28;20489;-71
2022/11/02 01:25:43;;;;;;;8.65;5.38;;;;;;;8.13;100.00;96492.50;1031125;28;20491;-71
2022/11/02 01:26:13;;;;;;;11.48;4.90;;;;;;;8.03;100.00;96479.22;1027270;28;20034;-71
2022/11/02 01:26:44;;;;;;;10.15;5.30;;;;;;;8.04;100.00;96488.63;1027471;28;20763;-71
2022/11/02 01:27:14;;;;;;;14.77;5.30;;;;;;;8.10;100.00;96497.41;1023307;29;20110;-72
2022/11/02 01:27:45;;;;;;;10.18;5.72;;;;;;;8.06;100.00;96494.44;1019650;29;20028;-70
2022/11/02 01:28:15;;;;;;;13.30;4.82;;;;;;;8.04;100.00;96493.88;1023515;28;20505;-71
2022/11/02 01:28:46;;;;;;;10.25;4.80;;;;;;;8.03;100.00;96494.91;1028325;28;20571;-72
2022/11/02 01:29:16;;;;;;;12.73;4.72;;;;;;;8.04;100.00;96499.09;1031525;28;20030;-71
2022/11/02 01:29:47;;;;;;;8.27;5.63;;;;;;;8.02;100.00;96496.72;1031621;28;20026;-70
2022/11/02 01:30:17;;;;;;;14.38;5.22;;;;;;;8.01;100.00;96500.38;1027448;28;20429;-70
2022/11/02 01:30:48;;;;;;;10.52;4.75;;;;;;;8.01;100.00;96495.13;1031216;28;20095;-70
2022/11/02 01:31:18;;;;;;;9.55;4.82;;;;;;;7.96;100.00;96486.38;1031617;28;20036;-71
2022/11/02 01:31:49;;;;;;;11.25;5.38;;;;;;;7.95;100.00;96490.03;1035473;28;20060;-71
2022/11/02 01:32:19;;;;;;;10.60;4.65;;;;;;;7.98;100.00;96492.97;1038908;28;20037;-70
2022/11/02 01:32:50;;;;;;;9.48;5.03;;;;;;;8.05;100.00;96500.69;1034419;28;20044;-72
2022/11/02 01:33:20;;;;;;;10.95;4.97;;;;;;;8.07;100.00;96501.25;1035458;28;20112;-71
2022/11/02 01:33:51;;;;;;;8.70;4.68;;;;;;;8.10;100.00;96502.63;1031328;28;20058;-70
2022/11/02 01:34:21;;;;;;;8.63;4.95;;;;;;;8.11;100.00;96499.75;1027419;28;20041;-70
2022/11/02 01:34:52;;;;;;;13.45;5.72;;;;;;;8.12;100.00;96503.19;1031212;28;20483;-71
2022/11/02 01:35:22;;;;;;;11.48;4.80;;;;;;;8.14;100.00;96499.31;1030146;28;20447;-72
2022/11/02 01:35:53;;;;;;;10.35;5.32;;;;;;;8.10;100.00;96482.50;1031215;28;20038;-70
2022/11/02 01:36:23;;;;;;;8.68;4.60;;;;;;;8.16;100.00;96494.66;1032378;28;20104;-74
2022/11/02 01:36:54;;;;;;;13.60;5.80;;;;;;;8.23;100.00;96497.94;1035263;28;20037;-72
2022/11/02 01:37:24;;;;;;;8.82;4.55;;;;;;;8.27;100.00;96500.91;1033611;28;20014;-72
2022/11/02 01:37:57;;;;;;;11.10;4.80;;;;;;;8.26;100.00;96497.50;1030317;28;20030;-72
2022/11/02 01:38:29;;;;;;;8.77;4.95;;;;;;;8.27;100.00;96499.06;1027117;28;20037;-70
2022/11/02 01:39:02;;;;;;;8.80;5.25;;;;;;;8.28;100.00;96499.88;1031366;28;20584;-71
2022/11/02 01:39:33;;;;;;;11.50;4.82;;;;;;;8.27;100.00;96493.84;1030807;28;20304;-70
2022/11/02 01:40:09;;;;;;;9.77;5.07;;;;;;;8.23;100.00;96492.72;1031848;28;20022;-70
2022/11/02 01:40:39;;;;;;;10.55;4.55;;;;;;;8.19;100.00;96486.38;1039513;28;20051;-71
2022/11/02 01:41:10;;;;;;;8.65;4.88;;;;;;;8.21;100.00;96491.34;1034270;28;20340;-70
2022/11/02 01:41:41;;;;;;;12.13;4.90;;;;;;;8.25;100.00;96501.16;1019419;29;20405;-70
2022/11/02 01:42:18;;;;;;;10.75;4.82;;;;;;;8.25;100.00;96495.91;1026786;28;20298;-69
2022/11/02 01:42:49;;;;;;;9.10;5.78;;;;;;;8.24;100.00;96504.75;1031131;28;20015;-72
2022/11/02 01:43:19;;;;;;;8.80;4.85;;;;;;;8.24;100.00;96501.34;1030877;28;20273;-72
2022/11/02 01:43:52;;;;;;;7.50;5.03;;;;;;;8.19;100.00;96496.81;1030290;28;20041;-71
2022/11/02 01:44:33;;;;;;;9.00;4.97;;;;;;;8.24;100.00;96499.53;1019150;28;20682;-71
2022/11/02 01:45:04;;;;;;;9.60;5.32;;;;;;;8.23;100.00;96502.38;1028973;28;20277;-70
2022/11/02 01:45:34;;;;;;;8.93;5.18;;;;;;;8.20;100.00;96493.19;1029633;28;20257;-71
2022/11/02 01:46:11;;;;;;;10.40;5.30;;;;;;;8.21;100.00;96494.75;1029241;28;20019;-71
2022/11/02 01:46:43;;;;;;;11.35;4.95;;;;;;;8.13;100.00;96482.06;1031239;28;20022;-70
2022/11/02 01:47:19;;;;;;;9.55;4.80;;;;;;;8.19;100.00;96496.03;1031173;28;20339;-72
2022/11/02 01:47:50;;;;;;;10.52;5.05;;;;;;;8.19;100.00;96502.06;1031336;28;20277;-70
2022/11/02 01:48:25;;;;;;;9.95;4.70;;;;;;;8.13;100.00;96482.06;1031353;28;20779;-71
2022/11/02 01:49:28;;;;;;;9.40;5.45;;;;;;;8.17;100.00;96496.25;1028922;28;20547;-71
2022/11/02 01:50:04;;;;;;;10.88;5.30;;;;;;;8.11;100.00;96488.53;1026888;28;20273;-72
2022/11/02 01:50:34;;;;;;;14.60;5.78;;;;;;;8.15;100.00;96495.69;1020529;29;20271;-71
2022/11/02 01:51:08;;;;;;;16.10;5.75;;;;;;;8.12;100.00;96490.91;1021336;28;21118;-71
2022/11/02 01:51:42;;;;;;;7.65;4.93;;;;;;;8.13;100.00;96495.13;1031287;28;20451;-70
2022/11/02 01:52:41;;;;;;;14.82;5.72;;;;;;;8.13;100.00;96499.56;1022738;28;20267;-70
2022/11/02 01:53:11;;;;;;;12.50;4.78;;;;;;;8.12;100.00;96497.97;1028933;28;20301;-71
2022/11/02 01:53:46;;;;;;;10.32;5.03;;;;;;;8.11;100.00;96489.31;1027286;28;20278;-72
2022/11/02 01:54:20;;;;;;;16.42;5.32;;;;;;;8.08;100.00;96489.78;1027195;28;20015;-71
2022/11/02 01:54:58;;;;;;;8.77;4.95;;;;;;;8.10;100.00;96494.78;1026553;28;20254;-71
2022/11/02 01:55:29;;;;;;;9.88;5.65;;;;;;;8.08;100.00;96495.03;1027127;28;20286;-72
2022/11/02 01:56:00;;;;;;;14.02;5.30;;;;;;;8.07;100.00;96490.78;1019506;29;20251;-71
2022/11/02 01:56:31;;;;;;;11.35;5.20;;;;;;;8.04;100.00;96488.63;1031219;28;20261;-70
2022/11/02 01:57:03;;;;;;;12.65;5.85;;;;;;;8.04;100.00;96488.63;1027302;28;20488;-70
2022/11/02 01:57:34;;;;;;;9.05;5.03;;;;;;;8.05;100.00;96500.69;1027031;28;20779;-72
2022/11/02 01:58:07;;;;;;;11.55;4.82;;;;;;;8.03;100.00;96484.44;1031275;28;20269;-72
2022/11/02 01:58:37;;;;;;;11.32;5.07;;;;;;;8.13;100.00;96494.31;1023109;29;20388;-72
2022/11/02 01:59:13;;;;;;;13.40;4.65;;;;;;;8.12;100.00;96497.97;1027196;28;20271;-72
2022/11/02 02:00:07;;;;;;;11.50;5.18;;;;;;;8.11;100.00;96499.75;1027941;28;20019;-72
2022/11/02 02:00:38;;;;;;;12.43;4.70;;;;;;;8.03;100.00;96487.06;1030902;28;20285;-70
2022/11/02 02:01:08;;;;;;;11.93;5.20;;;;;;;8.02;100.00;96490.69;1023263;29;20271;-70
2022/11/02 02:01:39;;;;;;;9.95;4.68;;;;;;;8.06;100.00;96494.44;1022534;29;20039;-70
2022/11/02 02:02:13;;;;;;;10.68;4.88;;;;;;;8.06;100.00;96497.06;1023254;29;20019;-70
2022/11/02 02:03:07;;;;;;;9.50;5.13;;;;;;;8.11;100.00;96499.75;1027240;28;20062;-72
2022/11/02 02:03:41;;;;;;;8.30;4.18;;;;;;;8.10;100.00;96500.78;1022563;28;20287;-71
2022/11/02 02:04:11;;;;;;;10.13;4.43;;;;;;;8.16;100.00;96502.50;1027127;28;20262;-73
2022/11/02 02:04:42;;;;;;;9.25;4.43;;;;;;;8.15;100.00;96498.31;1028881;28;20794;-71
2022/11/02 02:05:13;;;;;;;8.02;4.25;;;;;;;8.14;100.00;96499.31;1027809;28;20489;-71
2022/11/02 02:05:51;;;;;;;7.88;3.90;;;;;;;8.07;100.00;96485.56;1023139;29;20274;-71
2022/11/02 02:06:24;;;;;;;9.75;4.40;;;;;;;8.12;100.00;96505.81;1023443;29;20031;-71
2022/11/02 02:06:55;;;;;;;6.30;4.28;;;;;;;8.07;100.00;96490.78;1027151;28;20270;-71
2022/11/02 02:07:29;;;;;;;8.20;4.10;;;;;;;8.08;100.00;96495.03;1019707;29;20259;-71
2022/11/02 02:08:00;;;;;;;7.85;4.53;;;;;;;8.14;100.00;96509.78;1023247;29;20366;-73
2022/11/02 02:08:30;;;;;;;10.63;4.30;;;;;;;8.16;100.00;96506.94;1027047;28;20118;-72
2022/11/02 02:09:02;;;;;;;9.25;4.20;;;;;;;8.13;100.00;96502.97;1031396;28;20301;-71
2022/11/02 02:09:33;;;;;;;9.48;4.30;;;;;;;8.12;100.00;96498.75;1023301;29;20046;-72
2022/11/02 02:10:04;;;;;;;11.13;4.25;;;;;;;8.08;100.00;96491.59;1019291;29;20630;-72
2022/11/02 02:10:35;;;;;;;8.00;4.43;;;;;;;8.15;100.00;96503.53;1031062;28;20014;-72
2022/11/02 02:11:29;;;;;;;7.43;4.35;;;;;;;8.17;100.00;96500.69;1023354;29;21092;-71
2022/11/02 02:12:00;;;;;;;8.98;4.22;;;;;;;8.17;100.00;96498.88;1025313;28;20018;-72
2022/11/02 02:12:30;;;;;;;8.80;4.25;;;;;;;8.11;100.00;96489.31;1029837;28;20261;-72
2022/11/02 02:13:03;;;;;;;11.00;4.38;;;;;;;8.14;100.00;96495.91;1023295;29;20113;-72
2022/11/02 02:13:33;;;;;;;11.93;4.10;;;;;;;8.10;100.00;96490.34;1019066;29;20553;-72
2022/11/02 02:14:12;;;;;;;9.65;4.70;;;;;;;8.19;100.00;96509.91;1027145;28;20278;-71
2022/11/02 02:14:42;;;;;;;8.70;4.10;;;;;;;8.20;100.00;96508.88;1027325;28;20102;-71
2022/11/02 02:15:16;;;;;;;7.78;3.75;;;;;;;8.19;100.00;96501.25;1027293;28;20274;-72
2022/11/02 02:15:54;;;;;;;9.73;3.90;;;;;;;8.22;100.00;96508.66;1023465;28;20095;-71
2022/11/02 02:16:30;;;;;;;9.85;4.28;;;;;;;8.23;100.00;96513.63;1025310;28;20295;-73
2022/11/02 02:17:32;;;;;;;7.72;3.92;;;;;;;8.24;100.00;96512.59;1027051;28;20262;-72
2022/11/02 02:18:31;;;;;;;7.07;4.25;;;;;;;8.17;100.00;96498.88;1036159;28;20284;-73
2022/11/02 02:19:17;;;;;;;7.13;3.90;;;;;;;8.17;100.00;96498.88;1027270;28;20242;-71
2022/11/02 02:19:53;;;;;;;8.23;3.80;;;;;;;8.25;100.00;96509.00;1021940;29;20267;-71
2022/11/02 02:20:51;;;;;;;7.13;4.10;;;;;;;8.27;100.00;96509.53;1020545;28;20761;-70
2022/11/02 02:21:59;;;;;;;8.25;3.90;;;;;;;8.32;100.00;96510.69;1027906;28;20636;-71
2022/11/02 02:22:45;;;;;;;6.13;3.95;;;;;;;8.34;100.00;96519.09;1038475;28;20029;-70
2022/11/02 02:23:24;;;;;;;8.50;3.78;;;;;;;8.37;100.00;96516.81;1035045;28;21040;-71
2022/11/02 02:24:15;;;;;;;6.57;4.10;;;;;;;8.40;100.00;96518.22;1035025;28;20598;-72
2022/11/02 02:25:24;;;;;;;8.52;4.15;;;;;;;8.51;100.00;96517.38;1031113;28;20249;-72
2022/11/02 02:26:27;;;;;;;7.60;3.88;;;;;;;8.61;100.00;96514.19;1025014;28;20269;-71
2022/11/02 02:27:08;;;;;;;4.78;3.40;;;;;;;8.63;100.00;96515.56;1034121;28;20710;-71
2022/11/02 02:28:08;;;;;;;9.73;4.35;;;;;;;8.64;100.00;96508.50;1032030;28;20365;-70
2022/11/02 02:28:47;;;;;;;5.85;3.33;;;;;;;8.69;100.00;96517.25;1030313;28;20275;-70
2022/11/02 02:29:22;;;;;;;5.70;3.20;;;;;;;8.76;100.00;96516.34;1026775;28;20266;-72
2022/11/02 02:29:57;;;;;;;4.68;3.40;;;;;;;8.75;100.00;96512.91;1018702;29;20303;-72
2022/11/02 02:30:28;;;;;;;7.85;5.30;;;;;;;8.68;100.00;96505.19;1022700;29;20642;-73
2022/11/02 02:31:15;;;;;;;5.35;3.30;;;;;;;8.74;100.00;96506.09;1022531;28;20645;-71
2022/11/02 02:31:54;;;;;;;7.75;3.75;;;;;;;8.78;100.00;96506.41;1026660;28;20262;-71
2022/11/02 02:32:44;;;;;;;4.38;2.90;;;;;;;8.82;100.00;96516.22;1017420;29;20689;-71
2022/11/02 02:33:31;;;;;;;5.88;3.20;;;;;;;8.85;100.00;96509.69;1026611;28;20266;-71
2022/11/02 02:34:13;;;;;;;4.43;2.95;;;;;;;8.86;100.00;96506.06;1031534;28;20081;-70
2022/11/02 02:34:54;;;;;;;5.45;3.28;;;;;;;8.81;100.00;96513.81;1028433;28;20305;-71
2022/11/02 02:35:36;;;;;;;5.65;3.65;;;;;;;8.78;100.00;96516.88;1022715;29;20714;-72